createdAt,value
2018-05-18T00:00:01.108Z,11.70
2018-05-18T00:02:29.463Z,11.60
2018-05-18T00:04:57.759Z,11.60
2018-05-18T00:07:25.336Z,11.50
2018-05-18T00:09:53.720Z,11.50
2018-05-18T00:12:21.300Z,11.40
2018-05-18T00:14:48.928Z,11.40
2018-05-18T00:17:17.267Z,11.40
2018-05-18T00:19:44.856Z,11.40
2018-05-18T00:22:12.440Z,11.40
2018-05-18T00:24:40.811Z,11.50
2018-05-18T00:27:09.171Z,11.50
2018-05-18T00:29:36.755Z,11.40
2018-05-18T00:32:05.132Z,11.40
2018-05-18T00:34:33.537Z,11.40
2018-05-18T00:37:01.121Z,11.40
2018-05-18T00:39:28.753Z,11.50
2018-05-18T00:41:56.389Z,11.40
2018-05-18T00:44:24.832Z,11.30
2018-05-18T00:46:52.394Z,11.40
2018-05-18T00:49:19.988Z,11.30
2018-05-18T00:51:47.565Z,11.30
2018-05-18T00:54:15.921Z,11.30
2018-05-18T00:56:43.508Z,11.20
2018-05-18T00:59:12.382Z,11.20
2018-05-18T01:01:40.046Z,11.20
2018-05-18T01:04:08.385Z,11.10
2018-05-18T01:06:35.979Z,11.10
2018-05-18T01:09:03.524Z,11.10
2018-05-18T01:11:31.112Z,11.00
2018-05-18T01:13:59.471Z,10.80
2018-05-18T01:16:27.074Z,10.80
2018-05-18T01:18:55.498Z,10.80
2018-05-18T01:21:23.090Z,10.80
2018-05-18T01:23:50.748Z,10.80
2018-05-18T01:26:18.315Z,10.80
2018-05-18T01:28:45.916Z,10.70
2018-05-18T01:31:13.739Z,10.80
2018-05-18T01:33:41.328Z,10.80
2018-05-18T01:36:09.716Z,10.80
2018-05-18T01:38:37.380Z,10.80
2018-05-18T01:41:04.965Z,10.80
2018-05-18T01:43:32.669Z,10.80
2018-05-18T01:46:00.261Z,10.80
2018-05-18T01:48:28.648Z,10.80
2018-05-18T01:50:56.228Z,10.80
2018-05-18T01:53:24.597Z,10.70
2018-05-18T01:55:52.216Z,10.70
2018-05-18T01:58:19.897Z,10.70
2018-05-18T02:00:48.232Z,10.60
2018-05-18T02:03:15.874Z,10.60
2018-05-18T02:05:43.446Z,10.60
2018-05-18T02:08:11.042Z,10.50
2018-05-18T02:10:38.709Z,10.50
2018-05-18T02:13:06.416Z,10.50
2018-05-18T02:15:34.039Z,10.40
2018-05-18T02:18:02.441Z,10.40
2018-05-18T02:20:30.210Z,10.40
2018-05-18T02:22:57.800Z,10.40
2018-05-18T02:25:25.386Z,10.30
2018-05-18T02:27:52.986Z,10.40
2018-05-18T02:30:20.635Z,10.40
2018-05-18T02:32:49.016Z,10.40
2018-05-18T02:35:17.939Z,10.40
2018-05-18T02:37:45.544Z,10.40
2018-05-18T02:40:13.146Z,10.40
2018-05-18T02:42:40.822Z,10.40
2018-05-18T02:45:08.432Z,10.40
2018-05-18T02:47:36.056Z,10.50
2018-05-18T02:50:03.647Z,10.50
2018-05-18T02:52:31.291Z,10.50
2018-05-18T02:54:58.892Z,10.50
2018-05-18T02:57:27.256Z,10.40
2018-05-18T02:59:54.852Z,10.40
2018-05-18T03:02:22.453Z,10.40
2018-05-18T03:04:50.142Z,10.40
2018-05-18T03:07:19.011Z,10.40
2018-05-18T03:09:46.607Z,10.40
2018-05-18T03:12:14.982Z,10.40
2018-05-18T03:14:42.552Z,10.40
2018-05-18T03:17:10.927Z,10.30
2018-05-18T03:19:38.623Z,10.30
2018-05-18T03:22:06.217Z,10.30
2018-05-18T03:24:33.807Z,10.30
2018-05-18T03:27:01.415Z,10.20
2018-05-18T03:29:29.012Z,10.20
2018-05-18T03:31:56.615Z,10.20
2018-05-18T03:34:25.010Z,10.10
2018-05-18T03:36:52.575Z,10.10
2018-05-18T03:39:20.229Z,10.00
2018-05-18T03:41:47.864Z,10.00
2018-05-18T03:44:15.437Z,10.00
2018-05-18T03:46:43.796Z,9.80
2018-05-18T03:49:11.411Z,9.80
2018-05-18T03:51:38.980Z,9.80
2018-05-18T03:54:06.586Z,9.80
2018-05-18T03:56:34.244Z,9.70
2018-05-18T03:59:01.836Z,9.80
2018-05-18T04:01:41.291Z,9.70
2018-05-18T04:04:20.748Z,9.80
2018-05-18T04:06:59.974Z,9.80
2018-05-18T04:09:27.566Z,9.80
2018-05-18T04:11:55.144Z,9.80
2018-05-18T04:14:22.776Z,9.80
2018-05-18T04:16:50.373Z,9.90
2018-05-18T04:19:17.977Z,9.90
2018-05-18T04:21:45.548Z,9.80
2018-05-18T04:24:13.919Z,9.80
2018-05-18T04:26:41.497Z,9.70
2018-05-18T04:29:09.117Z,9.80
2018-05-18T04:31:37.509Z,9.80
2018-05-18T04:34:05.090Z,9.80
2018-05-18T04:36:32.842Z,9.90
2018-05-18T04:39:00.411Z,9.90
2018-05-18T04:41:28.012Z,10.00
2018-05-18T04:43:55.616Z,10.00
2018-05-18T04:46:23.200Z,10.10
2018-05-18T04:48:50.773Z,10.10
2018-05-18T04:51:18.394Z,10.20
2018-05-18T04:53:46.720Z,10.20
2018-05-18T04:56:14.316Z,10.20
2018-05-18T04:58:42.748Z,10.20
2018-05-18T05:01:10.412Z,10.10
2018-05-18T05:03:37.983Z,10.20
2018-05-18T05:06:05.603Z,10.10
2018-05-18T05:08:33.260Z,10.10
2018-05-18T05:11:01.675Z,10.00
2018-05-18T05:13:30.048Z,10.00
2018-05-18T05:15:57.644Z,10.00
2018-05-18T05:18:25.222Z,10.00
2018-05-18T05:20:52.884Z,10.10
2018-05-18T05:23:20.501Z,10.00
2018-05-18T05:25:48.924Z,9.90
2018-05-18T05:28:16.531Z,9.90
2018-05-18T05:30:44.148Z,9.90
2018-05-18T05:33:12.628Z,9.90
2018-05-18T05:35:40.203Z,9.90
2018-05-18T05:38:08.575Z,10.00
2018-05-18T05:40:36.166Z,10.00
2018-05-18T05:43:03.766Z,10.10
2018-05-18T05:45:31.368Z,10.10
2018-05-18T05:47:59.731Z,10.30
2018-05-18T05:50:27.319Z,10.20
2018-05-18T05:52:54.988Z,10.30
2018-05-18T05:55:23.342Z,10.30
2018-05-18T05:57:51.737Z,10.40
2018-05-18T06:00:20.114Z,10.50
2018-05-18T06:02:48.468Z,10.60
2018-05-18T06:05:16.097Z,10.60
2018-05-18T06:07:43.615Z,10.70
2018-05-18T06:10:11.964Z,10.80
2018-05-18T06:12:39.556Z,10.80
2018-05-18T06:15:07.931Z,10.90
2018-05-18T06:17:36.321Z,10.90
2018-05-18T06:20:03.907Z,10.80
2018-05-18T06:22:32.295Z,10.70
2018-05-18T06:24:59.908Z,10.70
2018-05-18T06:27:28.264Z,10.60
2018-05-18T06:29:55.885Z,10.60
2018-05-18T06:32:23.554Z,10.70
2018-05-18T06:34:51.172Z,10.60
2018-05-18T06:37:18.745Z,10.70
2018-05-18T06:39:47.128Z,10.70
2018-05-18T06:42:15.470Z,10.70
2018-05-18T06:44:43.108Z,10.70
2018-05-18T06:47:10.688Z,10.50
2018-05-18T06:49:38.279Z,10.60
2018-05-18T06:52:06.676Z,10.60
2018-05-18T06:54:34.270Z,10.60
2018-05-18T06:57:01.855Z,10.60
2018-05-18T06:59:29.443Z,10.70
2018-05-18T07:01:57.818Z,10.90
2018-05-18T07:04:25.408Z,10.90
2018-05-18T07:06:53.017Z,10.80
2018-05-18T07:09:20.600Z,11.00
2018-05-18T07:11:48.980Z,11.30
2018-05-18T07:14:17.308Z,11.40
2018-05-18T07:16:44.904Z,11.40
2018-05-18T07:19:12.492Z,11.60
2018-05-18T07:21:40.952Z,12.30
2018-05-18T07:24:08.548Z,12.30
2018-05-18T07:26:36.130Z,12.70
2018-05-18T07:29:03.707Z,13.20
2018-05-18T07:31:31.333Z,13.70
2018-05-18T07:33:58.895Z,14.10
2018-05-18T07:36:27.299Z,14.30
2018-05-18T07:38:54.891Z,14.50
2018-05-18T07:41:22.563Z,14.60
2018-05-18T07:43:50.180Z,14.60
2018-05-18T07:46:18.511Z,14.70
2018-05-18T07:48:46.100Z,14.70
2018-05-18T07:51:13.687Z,14.90
2018-05-18T07:53:41.290Z,15.20
2018-05-18T07:56:08.833Z,15.70
2018-05-18T07:58:36.461Z,16.40
2018-05-18T08:01:04.772Z,16.20
2018-05-18T08:03:33.170Z,16.10
2018-05-18T08:06:00.753Z,16.00
2018-05-18T08:08:29.145Z,16.70
2018-05-18T08:10:57.487Z,16.90
2018-05-18T08:13:25.181Z,16.90
2018-05-18T08:15:53.525Z,17.00
2018-05-18T08:18:21.140Z,17.00
2018-05-18T08:20:48.724Z,16.70
2018-05-18T08:23:16.399Z,16.50
2018-05-18T08:25:44.004Z,16.90
2018-05-18T08:28:12.328Z,20.20
2018-05-18T08:30:51.708Z,20.10
2018-05-18T08:33:20.069Z,23.90
2018-05-18T08:35:47.669Z,23.90
2018-05-18T08:38:16.050Z,22.10
2018-05-18T08:40:44.397Z,21.10
2018-05-18T08:43:11.991Z,21.10
2018-05-18T08:45:39.571Z,19.80
2018-05-18T08:48:07.155Z,19.50
2018-05-18T08:50:34.759Z,19.60
2018-05-18T08:53:03.127Z,20.60
2018-05-18T08:55:31.482Z,22.00
2018-05-18T08:57:59.090Z,22.00
2018-05-18T09:00:27.558Z,23.90
2018-05-18T09:02:55.127Z,23.90
2018-05-18T09:05:23.479Z,21.60
2018-05-18T09:07:51.057Z,21.60
2018-05-18T09:10:19.452Z,19.30
2018-05-18T09:12:47.844Z,19.10
2018-05-18T09:15:15.411Z,19.10
2018-05-18T09:17:43.151Z,19.50
2018-05-18T09:20:11.563Z,22.80
2018-05-18T09:22:39.163Z,22.70
2018-05-18T09:25:06.744Z,23.40
2018-05-18T09:27:35.105Z,22.20
2018-05-18T09:30:02.729Z,22.20
2018-05-18T09:32:30.541Z,23.60
2018-05-18T09:34:58.147Z,25.40
2018-05-18T09:37:26.515Z,25.80
2018-05-18T09:39:54.140Z,25.80
2018-05-18T09:42:21.688Z,25.60
2018-05-18T09:44:49.297Z,26.10
2018-05-18T09:47:16.919Z,26.20
2018-05-18T09:49:44.528Z,25.70
2018-05-18T09:52:12.156Z,25.80
2018-05-18T09:54:39.897Z,25.30
2018-05-18T09:57:07.437Z,25.50
2018-05-18T09:59:35.022Z,25.60
2018-05-18T10:02:02.629Z,25.50
2018-05-18T10:04:30.236Z,26.00
2018-05-18T10:06:57.822Z,25.20
2018-05-18T10:09:25.497Z,25.80
2018-05-18T10:11:53.184Z,25.50
2018-05-18T10:14:20.807Z,25.10
2018-05-18T10:16:48.399Z,25.50
2018-05-18T10:19:16.885Z,25.80
2018-05-18T10:21:44.468Z,26.10
2018-05-18T10:24:12.081Z,26.70
2018-05-18T10:26:39.652Z,27.00
2018-05-18T10:29:08.096Z,27.00
2018-05-18T10:31:35.740Z,26.90
2018-05-18T10:34:03.346Z,26.70
2018-05-18T10:36:30.976Z,26.60
2018-05-18T10:39:00.421Z,26.90
2018-05-18T10:41:28.825Z,26.40
2018-05-18T10:43:56.441Z,26.40
2018-05-18T10:46:25.440Z,26.00
2018-05-18T10:48:53.821Z,26.20
2018-05-18T10:51:21.419Z,26.20
2018-05-18T10:53:49.005Z,25.50
2018-05-18T10:56:16.641Z,25.30
2018-05-18T10:58:44.310Z,25.40
2018-05-18T11:01:12.028Z,25.40
2018-05-18T11:03:39.608Z,25.80
2018-05-18T11:06:07.995Z,26.30
2018-05-18T11:08:36.340Z,26.20
2018-05-18T11:11:03.978Z,26.20
2018-05-18T11:13:31.593Z,25.50
2018-05-18T11:15:59.194Z,25.50
2018-05-18T11:18:26.972Z,25.90
2018-05-18T11:20:54.542Z,25.10
2018-05-18T11:23:22.143Z,24.50
2018-05-18T11:25:50.504Z,23.10
2018-05-18T11:28:18.120Z,22.00
2018-05-18T11:30:45.700Z,23.10
2018-05-18T11:33:13.420Z,23.10
2018-05-18T11:35:40.913Z,22.80
2018-05-18T11:38:08.562Z,22.50
2018-05-18T11:40:37.118Z,22.50
2018-05-18T11:43:05.501Z,22.20
2018-05-18T11:45:33.838Z,22.40
2018-05-18T11:48:01.530Z,22.40
2018-05-18T11:50:29.089Z,22.20
2018-05-18T11:52:56.697Z,22.00
2018-05-18T11:55:24.255Z,21.60
2018-05-18T11:57:51.865Z,21.70
2018-05-18T12:00:19.441Z,21.30
2018-05-18T12:02:47.041Z,21.20
2018-05-18T12:05:14.637Z,21.40
2018-05-18T12:07:43.228Z,21.10
2018-05-18T12:10:10.837Z,20.60
2018-05-18T12:12:38.482Z,20.30
2018-05-18T12:15:07.075Z,20.70
2018-05-18T12:17:35.607Z,20.70
2018-05-18T12:20:03.344Z,20.70
2018-05-18T12:22:30.944Z,20.50
2018-05-18T12:24:58.570Z,20.50
2018-05-18T12:27:26.431Z,20.70
2018-05-18T12:29:54.868Z,20.80
2018-05-18T12:32:22.489Z,21.00
2018-05-18T12:34:51.996Z,21.10
2018-05-18T12:37:19.607Z,21.00
2018-05-18T12:39:48.218Z,20.80
2018-05-18T12:42:15.828Z,20.80
2018-05-18T12:44:43.452Z,20.40
2018-05-18T12:47:11.874Z,20.20
2018-05-18T12:49:40.233Z,20.20
2018-05-18T12:52:07.825Z,20.20
2018-05-18T12:54:35.392Z,20.40
2018-05-18T12:57:03.052Z,20.40
2018-05-18T12:59:31.541Z,20.60
2018-05-18T13:02:00.051Z,20.50
2018-05-18T13:04:28.521Z,20.50
2018-05-18T13:06:57.447Z,20.20
2018-05-18T13:09:25.027Z,20.20
2018-05-18T13:11:53.408Z,20.50
2018-05-18T13:14:21.000Z,20.50
2018-05-18T13:16:48.625Z,20.50
2018-05-18T13:19:16.256Z,20.20
2018-05-18T13:21:43.852Z,20.10
2018-05-18T13:24:11.449Z,20.20
2018-05-18T13:26:39.172Z,20.30
2018-05-18T13:29:06.726Z,20.30
2018-05-18T13:31:34.334Z,20.20
2018-05-18T13:34:02.691Z,20.30
2018-05-18T13:36:30.254Z,20.30
2018-05-18T13:38:57.823Z,20.40
2018-05-18T13:41:25.436Z,20.30
2018-05-18T13:43:53.069Z,19.90
2018-05-18T13:46:21.408Z,19.90
2018-05-18T13:48:48.993Z,19.90
2018-05-18T13:51:16.569Z,20.00
2018-05-18T13:53:44.997Z,20.10
2018-05-18T13:56:12.646Z,20.00
2018-05-18T13:58:41.034Z,19.80
2018-05-18T14:01:08.612Z,19.80
2018-05-18T14:03:36.224Z,19.70
2018-05-18T14:06:04.586Z,19.50
2018-05-18T14:08:32.193Z,19.50
2018-05-18T14:10:59.834Z,19.60
2018-05-18T14:13:27.431Z,19.60
2018-05-18T14:15:55.067Z,19.60
2018-05-18T14:18:22.653Z,19.60
2018-05-18T14:20:50.282Z,19.70
2018-05-18T14:23:17.869Z,19.50
2018-05-18T14:25:45.589Z,19.40
2018-05-18T14:28:13.958Z,19.20
2018-05-18T14:30:41.628Z,19.20
2018-05-18T14:33:09.981Z,19.20
2018-05-18T14:35:37.592Z,19.20
2018-05-18T14:38:05.207Z,19.20
2018-05-18T14:40:33.572Z,19.10
2018-05-18T14:43:01.282Z,19.10
2018-05-18T14:45:28.831Z,19.20
2018-05-18T14:47:56.468Z,19.10
2018-05-18T14:50:24.052Z,19.10
2018-05-18T14:52:51.662Z,19.00
2018-05-18T14:55:19.361Z,18.90
2018-05-18T14:57:46.961Z,19.00
2018-05-18T15:00:14.567Z,19.00
2018-05-18T15:02:42.157Z,19.10
2018-05-18T15:05:09.793Z,19.20
2018-05-18T15:07:37.388Z,19.20
2018-05-18T15:10:06.453Z,19.00
2018-05-18T15:12:34.053Z,19.00
2018-05-18T15:15:02.417Z,19.20
2018-05-18T15:17:30.062Z,19.20
2018-05-18T15:19:57.664Z,19.10
2018-05-18T15:22:26.107Z,19.00
2018-05-18T15:24:53.740Z,19.00
2018-05-18T15:27:22.114Z,19.00
2018-05-18T15:29:50.090Z,19.00
2018-05-18T15:32:17.722Z,19.00
2018-05-18T15:34:46.160Z,18.80
2018-05-18T15:37:13.823Z,18.80
2018-05-18T15:39:41.424Z,18.80
2018-05-18T15:42:09.808Z,18.70
2018-05-18T15:44:38.183Z,18.70
2018-05-18T15:47:06.537Z,18.70
2018-05-18T15:49:34.142Z,18.70
2018-05-18T15:52:01.878Z,18.80
2018-05-18T15:54:29.496Z,18.80
2018-05-18T15:56:57.112Z,18.90
2018-05-18T15:59:25.479Z,19.20
2018-05-18T16:01:53.873Z,19.20
2018-05-18T16:04:22.298Z,19.30
2018-05-18T16:06:50.004Z,19.30
2018-05-18T16:09:18.409Z,19.20
2018-05-18T16:11:47.217Z,19.20
2018-05-18T16:14:15.568Z,19.20
2018-05-18T16:16:43.940Z,19.30
2018-05-18T16:19:12.293Z,19.20
2018-05-18T16:21:39.912Z,19.20
2018-05-18T16:24:07.507Z,19.10
2018-05-18T16:26:35.109Z,19.10
2018-05-18T16:29:03.473Z,19.10
2018-05-18T16:31:31.156Z,19.10
2018-05-18T16:33:59.525Z,19.00
2018-05-18T16:36:27.912Z,18.90
2018-05-18T16:38:56.280Z,18.60
2018-05-18T16:41:24.671Z,18.50
2018-05-18T16:43:53.057Z,18.60
2018-05-18T16:46:21.596Z,18.50
2018-05-18T16:48:50.163Z,18.50
2018-05-18T16:51:17.887Z,18.50
2018-05-18T16:53:45.534Z,18.40
2018-05-18T16:56:13.165Z,18.40
2018-05-18T16:58:40.828Z,18.10
2018-05-18T17:01:08.479Z,17.90
2018-05-18T17:03:36.174Z,17.70
2018-05-18T17:06:03.768Z,17.60
2018-05-18T17:08:32.202Z,17.50
2018-05-18T17:10:59.837Z,17.50
2018-05-18T17:13:27.458Z,17.40
2018-05-18T17:15:55.811Z,17.20
2018-05-18T17:18:23.399Z,17.20
2018-05-18T17:20:51.754Z,17.20
2018-05-18T17:23:19.461Z,17.20
2018-05-18T17:25:47.155Z,17.10
2018-05-18T17:28:14.682Z,17.10
2018-05-18T17:30:43.171Z,17.00
2018-05-18T17:33:10.887Z,16.90
2018-05-18T17:35:38.398Z,16.90
2018-05-18T17:38:05.989Z,16.80
2018-05-18T17:40:33.626Z,16.70
2018-05-18T17:43:01.227Z,16.60
2018-05-18T17:45:28.869Z,16.60
2018-05-18T17:47:56.487Z,16.50
2018-05-18T17:50:24.873Z,16.30
2018-05-18T17:52:52.541Z,16.30
2018-05-18T17:55:20.165Z,16.30
2018-05-18T17:57:47.781Z,16.20
2018-05-18T18:00:15.384Z,16.20
2018-05-18T18:02:42.983Z,16.20
2018-05-18T18:05:11.361Z,16.00
2018-05-18T18:07:39.721Z,16.00
2018-05-18T18:10:07.354Z,16.00
2018-05-18T18:12:34.954Z,16.00
2018-05-18T18:15:03.362Z,15.80
2018-05-18T18:17:32.283Z,15.80
2018-05-18T18:19:59.914Z,15.80
2018-05-18T18:22:27.599Z,15.70
2018-05-18T18:24:55.197Z,15.60
2018-05-18T18:27:22.783Z,15.50
2018-05-18T18:29:51.162Z,15.50
2018-05-18T18:32:18.799Z,15.40
2018-05-18T18:34:46.408Z,15.30
2018-05-18T18:37:13.995Z,15.20
2018-05-18T18:39:41.667Z,15.20
2018-05-18T18:42:09.643Z,15.10
2018-05-18T18:57:37.295Z,15.00
2018-05-18T19:00:04.962Z,14.30
2018-05-18T19:02:32.600Z,14.20
2018-05-18T19:05:00.239Z,14.10
2018-05-18T19:07:27.848Z,14.10
2018-05-18T19:09:56.344Z,14.00
2018-05-18T19:12:23.977Z,13.90
2018-05-18T19:14:51.565Z,13.90
2018-05-18T19:17:19.205Z,13.80
2018-05-18T19:19:46.786Z,13.70
2018-05-18T19:22:15.201Z,13.60
2018-05-18T19:24:42.856Z,13.50
2018-05-18T19:27:11.285Z,13.40
2018-05-18T19:29:38.925Z,13.40
2018-05-18T19:32:07.407Z,13.30
2018-05-18T19:34:34.989Z,13.30
2018-05-18T19:37:03.384Z,13.20
2018-05-18T19:39:31.007Z,13.10
2018-05-18T19:41:58.660Z,13.10
2018-05-18T19:44:26.287Z,13.00
2018-05-18T19:46:53.919Z,13.00
2018-05-18T19:49:21.520Z,12.90
2018-05-18T19:51:49.964Z,12.90
2018-05-18T19:54:17.564Z,12.80
2018-05-18T19:56:45.171Z,12.80
2018-05-18T19:59:12.764Z,12.80
2018-05-18T20:01:40.368Z,12.70
2018-05-18T20:04:08.720Z,12.70
2018-05-18T20:06:36.342Z,12.60
2018-05-18T20:09:03.933Z,12.60
2018-05-18T20:11:31.522Z,12.50
2018-05-18T20:13:59.955Z,12.40
2018-05-18T20:16:27.593Z,12.40
2018-05-18T20:18:55.204Z,12.40
2018-05-18T20:21:22.792Z,12.30
2018-05-18T20:23:51.333Z,12.20
2018-05-18T20:26:20.897Z,12.20
2018-05-18T20:28:48.525Z,12.10
2018-05-18T20:31:17.592Z,12.10
2018-05-18T20:33:45.192Z,12.10
2018-05-18T20:36:13.619Z,11.90
2018-05-18T20:38:41.208Z,11.90
2018-05-18T20:41:08.810Z,11.90
2018-05-18T20:43:36.452Z,11.90
2018-05-18T20:46:04.055Z,11.90
2018-05-18T20:48:31.707Z,11.80
2018-05-18T20:50:59.369Z,11.70
2018-05-18T20:53:26.993Z,11.70
2018-05-18T20:55:54.599Z,11.60
2018-05-18T20:58:22.190Z,11.50
2018-05-18T21:00:49.898Z,11.50
2018-05-18T21:03:18.243Z,11.50
2018-05-18T21:05:45.880Z,11.40
2018-05-18T21:08:13.514Z,11.40
2018-05-18T21:10:41.895Z,11.40
2018-05-18T21:13:10.251Z,11.30
2018-05-18T21:15:37.840Z,11.30
2018-05-18T21:18:06.191Z,11.20
2018-05-18T21:20:34.558Z,11.20
2018-05-18T21:23:02.924Z,11.20
2018-05-18T21:25:30.520Z,11.20
2018-05-18T21:27:58.886Z,11.10
2018-05-18T21:30:26.550Z,11.00
2018-05-18T21:32:54.110Z,11.00
2018-05-18T21:35:21.684Z,11.00
2018-05-18T21:37:50.069Z,10.90
2018-05-18T21:40:18.427Z,10.80
2018-05-18T21:42:46.011Z,10.80
2018-05-18T21:45:14.399Z,10.70
2018-05-18T21:47:41.997Z,10.70
2018-05-18T21:50:09.664Z,10.70
2018-05-18T21:52:37.260Z,10.70
2018-05-18T21:55:04.876Z,10.60
2018-05-18T21:57:32.477Z,10.60
2018-05-18T22:00:00.092Z,10.50
2018-05-18T22:02:27.682Z,10.50
2018-05-18T22:04:55.374Z,10.60
2018-05-18T22:07:23.737Z,10.50
2018-05-18T22:09:51.324Z,10.50
2018-05-18T22:12:19.705Z,10.50
2018-05-18T22:14:48.174Z,10.40
2018-05-18T22:17:15.753Z,10.40
2018-05-18T22:19:43.333Z,10.40
2018-05-18T22:22:10.932Z,10.40
2018-05-18T22:24:38.524Z,10.30
2018-05-18T22:27:06.152Z,10.30
2018-05-18T22:29:33.749Z,10.20
2018-05-18T22:32:02.143Z,10.20
2018-05-18T22:34:30.475Z,10.10
2018-05-18T22:36:58.073Z,10.10
2018-05-18T22:39:26.447Z,10.10
2018-05-18T22:41:54.820Z,10.10
2018-05-18T22:44:23.684Z,10.00
2018-05-18T22:46:51.315Z,10.00
2018-05-18T22:49:18.903Z,9.90
2018-05-18T22:51:46.476Z,9.90
2018-05-18T22:54:14.060Z,9.90
2018-05-18T22:56:42.429Z,9.80
2018-05-18T22:59:09.992Z,9.80
2018-05-18T23:01:37.616Z,9.70
2018-05-18T23:04:05.185Z,9.70
2018-05-18T23:06:32.866Z,9.70
2018-05-18T23:09:00.445Z,9.60
2018-05-18T23:11:28.812Z,9.50
2018-05-18T23:13:56.395Z,9.50
2018-05-18T23:16:24.727Z,9.40
2018-05-18T23:18:52.406Z,9.40
2018-05-18T23:21:19.976Z,9.40
2018-05-18T23:23:47.589Z,9.30
2018-05-18T23:26:15.208Z,9.30
2018-05-18T23:28:42.815Z,9.20
2018-05-18T23:31:10.419Z,9.20
2018-05-18T23:33:38.013Z,9.10
2018-05-18T23:36:06.360Z,9.10
2018-05-18T23:38:34.023Z,9.00
2018-05-18T23:41:01.585Z,9.00
2018-05-18T23:43:29.176Z,9.00
2018-05-18T23:45:57.524Z,8.90
2018-05-18T23:48:25.137Z,8.80
2018-05-18T23:50:52.748Z,8.90
2018-05-18T23:53:20.346Z,8.80
2018-05-18T23:55:47.941Z,8.80
2018-05-18T23:58:15.521Z,8.70
